AAL843 MKJS-KPHL
Flight info
| Callsign | AAL843 |
|---|---|
| Flight time | N/A |
| Altitude | 39000 |
| Route | ALTIB UM779 ZEUSS/N0447F370 Y329 ZFP BR65V ADOOR M202 ETECK GRUBR OSTNN AR3 GARIC ZORDO BBDOL PAATS4 |
| Aircraft | A320/M-SDE3FGHIRWY/LB1 |
Departure
| Time | N/A |
|---|---|
| Airport | Sangster International Airport (MKJS) |
Arrival
| Time | 2026-05-03 21:44 |
|---|---|
| Airport | Philadelphia International Airport (KPHL) |
| Time | Latitude | Longitude | Altitude | Speed | Heading |
|---|---|---|---|---|---|
| 2026-05-03 20:15 | 30.27455 | -78.53784 | 39155 ft | 513 kts | 356° |
| 2026-05-03 20:15 | 30.34524 | -78.52551 | 39151 ft | 514 kts | 356° |
| 2026-05-03 20:16 | 30.41594 | -78.51334 | 39150 ft | 514 kts | 356° |
| 2026-05-03 20:16 | 30.48670 | -78.50123 | 39159 ft | 514 kts | 356° |
| 2026-05-03 20:17 | 30.55746 | -78.48910 | 39164 ft | 514 kts | 356° |
| 2026-05-03 20:17 | 30.62831 | -78.47685 | 39166 ft | 515 kts | 356° |
| 2026-05-03 20:18 | 30.69919 | -78.46455 | 39166 ft | 515 kts | 356° |
| 2026-05-03 20:18 | 30.77011 | -78.45237 | 39169 ft | 515 kts | 356° |
| 2026-05-03 20:19 | 30.84068 | -78.44008 | 39169 ft | 516 kts | 356° |
| 2026-05-03 20:19 | 30.91166 | -78.42764 | 39177 ft | 516 kts | 356° |
| 2026-05-03 20:20 | 30.97115 | -78.41730 | 39173 ft | 516 kts | 356° |
| 2026-05-03 20:20 | 31.04223 | -78.40493 | 39169 ft | 516 kts | 355° |
| 2026-05-03 20:21 | 31.11294 | -78.39260 | 39172 ft | 517 kts | 355° |
| 2026-05-03 20:21 | 31.18407 | -78.38016 | 39172 ft | 517 kts | 355° |
| 2026-05-03 20:22 | 31.25517 | -78.36778 | 39176 ft | 517 kts | 355° |
| 2026-05-03 20:22 | 31.32637 | -78.35533 | 39172 ft | 517 kts | 355° |
| 2026-05-03 20:23 | 31.39752 | -78.34280 | 39179 ft | 517 kts | 355° |
| 2026-05-03 20:23 | 31.46870 | -78.33018 | 39180 ft | 517 kts | 355° |
| 2026-05-03 20:24 | 31.53976 | -78.31767 | 39182 ft | 517 kts | 355° |
| 2026-05-03 20:24 | 31.61087 | -78.30512 | 39185 ft | 516 kts | 355° |
| 2026-05-03 20:25 | 31.68150 | -78.29267 | 39182 ft | 516 kts | 355° |
| 2026-05-03 20:25 | 31.75251 | -78.28013 | 39182 ft | 516 kts | 355° |
| 2026-05-03 20:26 | 31.82353 | -78.26756 | 39185 ft | 516 kts | 355° |
| 2026-05-03 20:26 | 31.89449 | -78.25498 | 39186 ft | 515 kts | 355° |
| 2026-05-03 20:27 | 31.96548 | -78.24238 | 39187 ft | 515 kts | 355° |
| 2026-05-03 20:27 | 32.03639 | -78.22980 | 39189 ft | 515 kts | 355° |
| 2026-05-03 20:28 | 32.10724 | -78.21721 | 39195 ft | 514 kts | 355° |
| 2026-05-03 20:28 | 32.17795 | -78.20452 | 39191 ft | 514 kts | 355° |
| 2026-05-03 20:29 | 32.24864 | -78.19178 | 39195 ft | 513 kts | 355° |
| 2026-05-03 20:29 | 32.31879 | -78.17915 | 39191 ft | 513 kts | 355° |
| 2026-05-03 20:30 | 32.38928 | -78.16650 | 39194 ft | 512 kts | 354° |
| 2026-05-03 20:30 | 32.45967 | -78.15393 | 39192 ft | 511 kts | 354° |
| 2026-05-03 20:31 | 32.52984 | -78.14136 | 39186 ft | 510 kts | 354° |
| 2026-05-03 20:31 | 32.60003 | -78.12862 | 39190 ft | 509 kts | 354° |
| 2026-05-03 20:32 | 32.67003 | -78.11599 | 39190 ft | 509 kts | 354° |
| 2026-05-03 20:32 | 32.74000 | -78.10335 | 39192 ft | 508 kts | 354° |
| 2026-05-03 20:33 | 32.80989 | -78.09063 | 39194 ft | 508 kts | 354° |
| 2026-05-03 20:33 | 32.87974 | -78.07798 | 39196 ft | 507 kts | 354° |
| 2026-05-03 20:34 | 32.94946 | -78.06536 | 39195 ft | 507 kts | 354° |
| 2026-05-03 20:34 | 33.01911 | -78.05269 | 39196 ft | 506 kts | 354° |
| 2026-05-03 20:35 | 33.08858 | -78.04007 | 39197 ft | 504 kts | 354° |
| 2026-05-03 20:35 | 33.15745 | -78.02753 | 39195 ft | 503 kts | 354° |
| 2026-05-03 20:36 | 33.22663 | -78.01487 | 39192 ft | 503 kts | 354° |
| 2026-05-03 20:36 | 33.29570 | -78.00211 | 39188 ft | 502 kts | 354° |
| 2026-05-03 20:37 | 33.36470 | -77.98934 | 39188 ft | 501 kts | 354° |
| 2026-05-03 20:37 | 33.43364 | -77.97668 | 39186 ft | 501 kts | 354° |
| 2026-05-03 20:38 | 33.50254 | -77.96409 | 39180 ft | 499 kts | 353° |
| 2026-05-03 20:38 | 33.53649 | -77.96108 | 39181 ft | 480 kts | 343° |
| 2026-05-03 20:38 | 33.56949 | -77.96274 | 39185 ft | 473 kts | 341° |
| 2026-05-03 20:39 | 33.63475 | -77.96688 | 39177 ft | 473 kts | 341° |
| 2026-05-03 20:39 | 33.70051 | -77.97094 | 39174 ft | 473 kts | 341° |
| 2026-05-03 20:40 | 33.76634 | -77.97486 | 39166 ft | 473 kts | 342° |
| 2026-05-03 20:40 | 33.83211 | -77.97877 | 39162 ft | 473 kts | 342° |
| 2026-05-03 20:41 | 33.89875 | -77.97835 | 39155 ft | 494 kts | 353° |
| 2026-05-03 20:41 | 33.96702 | -77.96775 | 39158 ft | 495 kts | 353° |
| 2026-05-03 20:42 | 34.03535 | -77.95678 | 39155 ft | 495 kts | 353° |
| 2026-05-03 20:42 | 34.10330 | -77.94600 | 39165 ft | 494 kts | 353° |
| 2026-05-03 20:43 | 34.17146 | -77.93538 | 39170 ft | 494 kts | 353° |
| 2026-05-03 20:43 | 34.23967 | -77.92469 | 39166 ft | 493 kts | 353° |
| 2026-05-03 20:44 | 34.30773 | -77.91401 | 39165 ft | 493 kts | 353° |
| 2026-05-03 20:44 | 34.37574 | -77.90319 | 39166 ft | 493 kts | 354° |
| 2026-05-03 20:45 | 34.44373 | -77.89238 | 39163 ft | 492 kts | 353° |
| 2026-05-03 20:45 | 34.51113 | -77.88182 | 39167 ft | 491 kts | 354° |
| 2026-05-03 20:46 | 34.57892 | -77.87110 | 39153 ft | 491 kts | 354° |
| 2026-05-03 20:46 | 34.64666 | -77.86031 | 39154 ft | 490 kts | 354° |
| 2026-05-03 20:47 | 34.71425 | -77.84956 | 39154 ft | 489 kts | 354° |
| 2026-05-03 20:47 | 34.78180 | -77.83875 | 39155 ft | 489 kts | 354° |
| 2026-05-03 20:48 | 34.84926 | -77.82789 | 39166 ft | 488 kts | 354° |
| 2026-05-03 20:48 | 34.88213 | -77.82503 | 39153 ft | 472 kts | 346° |
| 2026-05-03 20:48 | 34.91491 | -77.82532 | 39152 ft | 471 kts | 346° |
| 2026-05-03 20:49 | 34.98034 | -77.82598 | 39148 ft | 470 kts | 346° |
| 2026-05-03 20:49 | 35.04578 | -77.82650 | 39152 ft | 470 kts | 346° |
| 2026-05-03 20:50 | 35.11108 | -77.82695 | 39154 ft | 469 kts | 346° |
| 2026-05-03 20:50 | 35.17629 | -77.82742 | 39164 ft | 468 kts | 346° |
| 2026-05-03 20:51 | 35.24137 | -77.82797 | 39164 ft | 467 kts | 346° |
| 2026-05-03 20:51 | 35.30638 | -77.82846 | 39161 ft | 467 kts | 346° |
| 2026-05-03 20:52 | 35.37128 | -77.82893 | 39163 ft | 466 kts | 347° |
| 2026-05-03 20:52 | 35.43619 | -77.82937 | 39140 ft | 465 kts | 347° |
| 2026-05-03 20:53 | 35.50087 | -77.82990 | 39141 ft | 465 kts | 347° |
| 2026-05-03 20:53 | 35.56509 | -77.83044 | 39144 ft | 464 kts | 347° |
| 2026-05-03 20:54 | 35.62962 | -77.83094 | 39152 ft | 463 kts | 347° |
| 2026-05-03 20:54 | 35.72623 | -77.83171 | 39156 ft | 462 kts | 347° |
| 2026-05-03 20:55 | 35.79060 | -77.83219 | 39154 ft | 462 kts | 347° |
| 2026-05-03 20:55 | 35.85488 | -77.83257 | 39154 ft | 461 kts | 347° |
| 2026-05-03 20:56 | 35.91902 | -77.83309 | 39154 ft | 461 kts | 347° |
| 2026-05-03 20:56 | 35.98314 | -77.83365 | 39157 ft | 460 kts | 347° |
| 2026-05-03 20:57 | 36.04681 | -77.83413 | 39157 ft | 460 kts | 347° |
| 2026-05-03 20:57 | 36.11077 | -77.83458 | 39160 ft | 459 kts | 347° |
| 2026-05-03 20:58 | 36.17465 | -77.83507 | 39151 ft | 458 kts | 347° |
| 2026-05-03 20:58 | 36.23840 | -77.83562 | 39145 ft | 458 kts | 347° |
| 2026-05-03 20:59 | 36.30208 | -77.83613 | 39133 ft | 457 kts | 347° |
| 2026-05-03 20:59 | 36.36563 | -77.83658 | 39135 ft | 457 kts | 348° |
| 2026-05-03 21:00 | 36.40819 | -77.83692 | 39135 ft | 457 kts | 347° |
| 2026-05-03 21:00 | 36.49278 | -77.83760 | 39140 ft | 456 kts | 348° |
| 2026-05-03 21:01 | 36.55629 | -77.83809 | 39163 ft | 456 kts | 348° |
| 2026-05-03 21:01 | 36.61978 | -77.83854 | 39130 ft | 456 kts | 348° |
| 2026-05-03 21:02 | 36.68316 | -77.83902 | 39131 ft | 455 kts | 348° |
| 2026-05-03 21:02 | 36.74655 | -77.83954 | 39126 ft | 455 kts | 348° |
| 2026-05-03 21:03 | 36.80950 | -77.84005 | 39128 ft | 455 kts | 348° |
| 2026-05-03 21:03 | 36.87279 | -77.84055 | 39122 ft | 455 kts | 348° |
| 2026-05-03 21:04 | 36.93608 | -77.84098 | 39118 ft | 455 kts | 348° |
| 2026-05-03 21:04 | 36.99943 | -77.84145 | 39103 ft | 455 kts | 348° |
| 2026-05-03 21:05 | 37.06270 | -77.84202 | 39110 ft | 454 kts | 348° |
| 2026-05-03 21:05 | 37.12598 | -77.84256 | 39110 ft | 454 kts | 348° |
| 2026-05-03 21:06 | 37.18925 | -77.84306 | 39117 ft | 454 kts | 348° |
| 2026-05-03 21:06 | 37.25249 | -77.84357 | 39121 ft | 454 kts | 348° |
| 2026-05-03 21:07 | 37.31574 | -77.84406 | 39122 ft | 454 kts | 348° |
| 2026-05-03 21:07 | 37.37858 | -77.84455 | 39126 ft | 454 kts | 348° |
| 2026-05-03 21:08 | 37.44180 | -77.84509 | 39125 ft | 454 kts | 348° |
| 2026-05-03 21:08 | 37.50508 | -77.84557 | 39127 ft | 455 kts | 349° |
| 2026-05-03 21:09 | 37.56831 | -77.84608 | 39133 ft | 455 kts | 349° |
| 2026-05-03 21:09 | 37.63228 | -77.83580 | 39131 ft | 481 kts | 9° |
| 2026-05-03 21:10 | 37.66334 | -77.81867 | 39124 ft | 496 kts | 22° |
| 2026-05-03 21:10 | 37.69214 | -77.79379 | 39120 ft | 505 kts | 30° |
| 2026-05-03 21:10 | 37.73883 | -77.74931 | 39114 ft | 506 kts | 30° |
| 2026-05-03 21:11 | 37.79507 | -77.69590 | 39108 ft | 506 kts | 29° |
| 2026-05-03 21:11 | 37.85143 | -77.64227 | 39109 ft | 507 kts | 30° |
| 2026-05-03 21:12 | 37.90769 | -77.58836 | 39112 ft | 507 kts | 30° |
| 2026-05-03 21:12 | 37.96387 | -77.53419 | 39117 ft | 507 kts | 30° |
| 2026-05-03 21:13 | 38.02004 | -77.47989 | 39101 ft | 507 kts | 30° |
| 2026-05-03 21:13 | 38.07621 | -77.42580 | 39094 ft | 506 kts | 29° |
| 2026-05-03 21:14 | 38.13380 | -77.37491 | 39083 ft | 502 kts | 26° |
| 2026-05-03 21:14 | 38.19248 | -77.32688 | 39083 ft | 501 kts | 25° |
| 2026-05-03 21:15 | 38.25102 | -77.27859 | 39087 ft | 502 kts | 26° |
| 2026-05-03 21:15 | 38.30870 | -77.22949 | 39095 ft | 502 kts | 27° |
| 2026-05-03 21:16 | 38.36656 | -77.17968 | 39104 ft | 502 kts | 28° |
| 2026-05-03 21:16 | 38.41930 | -77.11985 | 39100 ft | 512 kts | 40° |
| 2026-05-03 21:17 | 38.46908 | -77.05488 | 39105 ft | 512 kts | 40° |
| 2026-05-03 21:17 | 38.51890 | -76.98992 | 39111 ft | 512 kts | 40° |
| 2026-05-03 21:18 | 38.56873 | -76.92489 | 39097 ft | 512 kts | 40° |
| 2026-05-03 21:18 | 38.61841 | -76.85982 | 39081 ft | 512 kts | 40° |
| 2026-05-03 21:19 | 38.66802 | -76.79441 | 39074 ft | 513 kts | 43° |
| 2026-05-03 21:19 | 38.70790 | -76.71803 | 39071 ft | 522 kts | 64° |
| 2026-05-03 21:20 | 38.72979 | -76.62903 | 39070 ft | 525 kts | 74° |
| 2026-05-03 21:20 | 38.74857 | -76.53849 | 39069 ft | 526 kts | 74° |
| 2026-05-03 21:21 | 38.76740 | -76.44848 | 39076 ft | 526 kts | 74° |
| 2026-05-03 21:21 | 38.78640 | -76.35715 | 39067 ft | 527 kts | 74° |
| 2026-05-03 21:22 | 38.80498 | -76.26676 | 38686 ft | 531 kts | 74° |
| 2026-05-03 21:22 | 38.81450 | -76.22039 | 37521 ft | 539 kts | 73° |
| 2026-05-03 21:22 | 38.82399 | -76.17406 | 36719 ft | 538 kts | 73° |
| 2026-05-03 21:23 | 38.83349 | -76.12751 | 35751 ft | 540 kts | 72° |
| 2026-05-03 21:23 | 38.84298 | -76.08078 | 34829 ft | 542 kts | 72° |
| 2026-05-03 21:23 | 38.85242 | -76.03409 | 34004 ft | 540 kts | 71° |
| 2026-05-03 21:23 | 38.86186 | -75.98745 | 32894 ft | 540 kts | 71° |
| 2026-05-03 21:24 | 38.87132 | -75.94087 | 31797 ft | 539 kts | 71° |
| 2026-05-03 21:24 | 38.88339 | -75.89579 | 30902 ft | 529 kts | 61° |
| 2026-05-03 21:24 | 38.90034 | -75.85451 | 29971 ft | 518 kts | 51° |
| 2026-05-03 21:24 | 38.92167 | -75.81828 | 29233 ft | 500 kts | 41° |
| 2026-05-03 21:25 | 38.94598 | -75.78760 | 28557 ft | 482 kts | 32° |
| 2026-05-03 21:25 | 38.97218 | -75.76185 | 27902 ft | 469 kts | 28° |
| 2026-05-03 21:25 | 38.99832 | -75.73705 | 27252 ft | 462 kts | 28° |
| 2026-05-03 21:25 | 39.02404 | -75.71279 | 26622 ft | 454 kts | 27° |
| 2026-05-03 21:26 | 39.05083 | -75.69279 | 25970 ft | 438 kts | 17° |
| 2026-05-03 21:26 | 39.07888 | -75.67959 | 25346 ft | 423 kts | 7° |
| 2026-05-03 21:26 | 39.10689 | -75.67286 | 24764 ft | 408 kts | 358° |
| 2026-05-03 21:26 | 39.13529 | -75.66980 | 24195 ft | 401 kts | 357° |
| 2026-05-03 21:27 | 39.16288 | -75.66684 | 23648 ft | 396 kts | 357° |
| 2026-05-03 21:27 | 39.19021 | -75.66385 | 23064 ft | 391 kts | 357° |
| 2026-05-03 21:27 | 39.21711 | -75.66088 | 22560 ft | 385 kts | 357° |
| 2026-05-03 21:27 | 39.24359 | -75.65797 | 22085 ft | 379 kts | 357° |
| 2026-05-03 21:28 | 39.26970 | -75.65319 | 21614 ft | 382 kts | 6° |
| 2026-05-03 21:28 | 39.29465 | -75.64206 | 21109 ft | 389 kts | 18° |
| 2026-05-03 21:28 | 39.31812 | -75.62412 | 20583 ft | 394 kts | 27° |
| 2026-05-03 21:28 | 39.34067 | -75.60427 | 20038 ft | 392 kts | 27° |
| 2026-05-03 21:29 | 39.36295 | -75.58394 | 19492 ft | 394 kts | 32° |
| 2026-05-03 21:29 | 39.38260 | -75.55880 | 18955 ft | 398 kts | 40° |
| 2026-05-03 21:29 | 39.40154 | -75.53287 | 18429 ft | 396 kts | 40° |
| 2026-05-03 21:29 | 39.42048 | -75.50708 | 17852 ft | 394 kts | 40° |
| 2026-05-03 21:30 | 39.43931 | -75.48144 | 17259 ft | 392 kts | 40° |
| 2026-05-03 21:30 | 39.45803 | -75.45596 | 16670 ft | 389 kts | 40° |
| 2026-05-03 21:30 | 39.47663 | -75.43064 | 16105 ft | 387 kts | 40° |
| 2026-05-03 21:31 | 39.49209 | -75.40874 | 15627 ft | 387 kts | 42° |
| 2026-05-03 21:31 | 39.51083 | -75.38272 | 15070 ft | 400 kts | 41° |
| 2026-05-03 21:31 | 39.53035 | -75.35628 | 14530 ft | 410 kts | 41° |
| 2026-05-03 21:31 | 39.55014 | -75.32958 | 13994 ft | 410 kts | 41° |
| 2026-05-03 21:32 | 39.56978 | -75.30290 | 13422 ft | 407 kts | 41° |
| 2026-05-03 21:32 | 39.58915 | -75.27642 | 12840 ft | 403 kts | 41° |
| 2026-05-03 21:32 | 39.60826 | -75.25013 | 12240 ft | 398 kts | 42° |
| 2026-05-03 21:32 | 39.62711 | -75.22415 | 11647 ft | 393 kts | 42° |
| 2026-05-03 21:33 | 39.64573 | -75.19849 | 11065 ft | 388 kts | 42° |
| 2026-05-03 21:33 | 39.66409 | -75.17315 | 10491 ft | 383 kts | 42° |
| 2026-05-03 21:33 | 39.68216 | -75.14817 | 9923 ft | 376 kts | 42° |
| 2026-05-03 21:33 | 39.69982 | -75.12367 | 9304 ft | 362 kts | 42° |
| 2026-05-03 21:34 | 39.71640 | -75.10056 | 8689 ft | 340 kts | 42° |
| 2026-05-03 21:34 | 39.73212 | -75.07866 | 8084 ft | 321 kts | 41° |
| 2026-05-03 21:34 | 39.74694 | -75.05784 | 7498 ft | 307 kts | 42° |
| 2026-05-03 21:34 | 39.76110 | -75.03774 | 6903 ft | 296 kts | 42° |
| 2026-05-03 21:35 | 39.77458 | -75.01853 | 6363 ft | 286 kts | 42° |
| 2026-05-03 21:35 | 39.78773 | -74.99974 | 5921 ft | 278 kts | 42° |
| 2026-05-03 21:35 | 39.80077 | -74.98120 | 5500 ft | 277 kts | 42° |
| 2026-05-03 21:35 | 39.81373 | -74.96283 | 5083 ft | 275 kts | 43° |
| 2026-05-03 21:36 | 39.82650 | -74.94434 | 4675 ft | 275 kts | 47° |
| 2026-05-03 21:36 | 39.83724 | -74.92363 | 4252 ft | 274 kts | 49° |
| 2026-05-03 21:36 | 39.85112 | -74.90810 | 3867 ft | 258 kts | 20° |
| 2026-05-03 21:36 | 39.86790 | -74.90380 | 3573 ft | 238 kts | 349° |
| 2026-05-03 21:37 | 39.88257 | -74.91094 | 3402 ft | 219 kts | 323° |
| 2026-05-03 21:37 | 39.89439 | -74.92255 | 3247 ft | 208 kts | 319° |
| 2026-05-03 21:37 | 39.90539 | -74.93421 | 3108 ft | 200 kts | 318° |
| 2026-05-03 21:37 | 39.91524 | -74.94638 | 3002 ft | 191 kts | 306° |
| 2026-05-03 21:38 | 39.92120 | -74.96130 | 2913 ft | 183 kts | 287° |
| 2026-05-03 21:38 | 39.92289 | -74.97753 | 2801 ft | 179 kts | 270° |
| 2026-05-03 21:38 | 39.92068 | -74.99324 | 2742 ft | 176 kts | 259° |
| 2026-05-03 21:38 | 39.91763 | -75.00862 | 2661 ft | 173 kts | 261° |
| 2026-05-03 21:39 | 39.91469 | -75.02349 | 2587 ft | 166 kts | 261° |
| 2026-05-03 21:39 | 39.91187 | -75.03775 | 2541 ft | 161 kts | 260° |
| 2026-05-03 21:39 | 39.90908 | -75.05193 | 2503 ft | 162 kts | 260° |
| 2026-05-03 21:39 | 39.90630 | -75.06605 | 2424 ft | 161 kts | 261° |
| 2026-05-03 21:40 | 39.90356 | -75.07989 | 2262 ft | 159 kts | 260° |
| 2026-05-03 21:40 | 39.90079 | -75.09389 | 2060 ft | 156 kts | 259° |
| 2026-05-03 21:40 | 39.89811 | -75.10746 | 1858 ft | 153 kts | 259° |
| 2026-05-03 21:40 | 39.89550 | -75.12063 | 1657 ft | 150 kts | 260° |
| 2026-05-03 21:41 | 39.89287 | -75.13392 | 1450 ft | 151 kts | 259° |
| 2026-05-03 21:41 | 39.89031 | -75.14682 | 1248 ft | 144 kts | 259° |
| 2026-05-03 21:41 | 39.88787 | -75.15911 | 1048 ft | 135 kts | 260° |
| 2026-05-03 21:41 | 39.88564 | -75.17026 | 848 ft | 130 kts | 258° |
| 2026-05-03 21:42 | 39.88345 | -75.18155 | 667 ft | 127 kts | 257° |
| 2026-05-03 21:42 | 39.88120 | -75.19267 | 541 ft | 126 kts | 257° |
| 2026-05-03 21:42 | 39.87900 | -75.20376 | 346 ft | 128 kts | 258° |
| 2026-05-03 21:42 | 39.87678 | -75.21486 | 182 ft | 126 kts | 259° |
| 2026-05-03 21:43 | 39.87466 | -75.22573 | 29 ft | 122 kts | 257° |
| 2026-05-03 21:43 | 39.87285 | -75.23495 | 19 ft | 88 kts | 256° |
| 2026-05-03 21:43 | 39.87148 | -75.24168 | 26 ft | 67 kts | 255° |
| 2026-05-03 21:43 | 39.87040 | -75.24699 | 22 ft | 55 kts | 256° |
| 2026-05-03 21:44 | 39.87002 | -75.25016 | 20 ft | 26 kts | 276° |
| 2026-05-03 21:44 | 39.87062 | -75.25206 | 19 ft | 20 kts | 335° |
| 2026-05-03 21:44 | 39.87139 | -75.25213 | 19 ft | 8 kts | 13° |
| 2026-05-03 21:44 | 39.87191 | -75.25198 | 18 ft | 8 kts | 4° |
| 2026-05-03 21:45 | 39.87216 | -75.25197 | 18 ft | 0 kts | 1° |